Time;durP1;ratioP1;P1;durP2;ratioP2;P2;SDS_P1;SDS_P2;PMS_P1;PMS_P2;Temp;Humidity;BMP_temperature;BMP_pressure;BME280_temperature;BME280_humidity;BME280_pressure;Samples;Min_cycle;Max_cycle;Signal;HPM_P1;HPM_P2
2023/08/08 00:08:08;;;;;;;3.13;2.83;;;15.70;99.90;;;;;;4819578;29;20204;-86
2023/08/08 00:43:39;;;;;;;3.90;2.63;;;15.50;99.00;;;;;;4857531;29;20285;-87
2023/08/08 01:13:35;;;;;;;5.17;2.50;;;15.20;98.00;;;;;;4712537;29;20377;-86
2023/08/08 01:34:29;;;;;;;4.67;2.50;;;15.00;99.50;;;;;;4690539;29;20281;-86
2023/08/08 01:38:49;;;;;;;2.63;1.80;;;15.00;99.20;;;;;;4638817;30;20306;-84
2023/08/08 02:04:47;;;;;;;6.23;2.90;;;15.00;97.10;;;;;;4745523;29;20201;-85
2023/08/08 02:25:09;;;;;;;5.33;2.60;;;14.50;98.30;;;;;;4676688;30;20238;-86
2023/08/08 03:00:29;;;;;;;2.97;2.10;;;14.30;98.60;;;;;;4696827;30;20246;-83
2023/08/08 03:30:28;;;;;;;5.67;2.43;;;14.00;97.50;;;;;;4794014;29;20755;-88
2023/08/08 03:51:40;;;;;;;4.03;1.97;;;14.00;97.50;;;;;;4763821;29;20210;-84
2023/08/08 03:55:45;;;;;;;3.83;2.17;;;14.00;97.10;;;;;;4691257;29;20297;-86
2023/08/08 04:11:26;;;;;;;7.33;2.77;;;14.10;97.20;;;;;;4622329;30;20464;-85
2023/08/08 04:31:54;;;;;;;4.30;2.03;;;14.40;95.30;;;;;;4635121;30;20803;-85
2023/08/08 04:57:13;;;;;;;4.13;2.23;;;15.00;93.10;;;;;;4616190;30;20243;-86
2023/08/08 05:26:41;;;;;;;5.00;2.43;;;15.40;91.40;;;;;;4549185;31;20370;-84
2023/08/08 05:42:07;;;;;;;5.60;2.30;;;15.80;90.10;;;;;;4441367;31;20306;-84
2023/08/08 06:22:33;;;;;;;4.27;2.10;;;16.20;89.40;;;;;;4429472;31;20237;-85
2023/08/08 07:02:34;;;;;;;3.67;2.53;;;16.70;85.20;;;;;;4698505;29;20842;-85
2023/08/08 07:23:26;;;;;;;3.73;2.40;;;17.30;81.70;;;;;;4655653;30;20289;-83
2023/08/08 08:03:56;;;;;;;6.20;2.60;;;18.40;76.40;;;;;;4754358;29;20199;-84
2023/08/08 08:24:17;;;;;;;3.07;1.90;;;18.80;70.30;;;;;;4772519;29;20562;-82
2023/08/08 08:49:47;;;;;;;4.13;2.10;;;18.60;72.60;;;;;;4643020;30;20206;-83
2023/08/08 09:55:21;;;;;;;3.63;1.63;;;20.10;58.60;;;;;;4553608;30;20460;-86
2023/08/08 10:51:34;;;;;;;2.17;1.20;;;19.90;54.20;;;;;;4468669;31;20731;-79
2023/08/08 11:27:04;;;;;;;2.53;1.60;;;19.80;51.60;;;;;;4646756;30;20386;-84
2023/08/08 11:57:26;;;;;;;5.03;1.60;;;20.70;48.50;;;;;;4742776;29;20288;-84
2023/08/08 12:22:45;;;;;;;2.08;1.20;;;20.40;48.80;;;;;;4624768;30;20258;-83
2023/08/08 12:53:05;;;;;;;1.27;1.17;;;20.40;48.80;;;;;;4582805;30;20229;-84
2023/08/08 13:23:51;;;;;;;1.42;1.10;;;21.20;45.90;;;;;;4539390;30;20241;-83
2023/08/08 13:44:05;;;;;;;2.40;1.40;;;20.20;47.00;;;;;;4751359;29;20290;-82
2023/08/08 14:09:15;;;;;;;2.43;1.20;;;19.90;50.90;;;;;;4641769;29;20585;-84
2023/08/08 14:34:10;;;;;;;7.47;1.73;;;21.00;49.60;;;;;;4650197;30;20239;-87
2023/08/08 14:55:08;;;;;;;2.38;1.30;;;25.80;46.90;;;;;;4619605;30;20220;-82
2023/08/08 15:15:12;;;;;;;1.38;1.17;;;25.20;45.30;;;;;;4576646;30;21057;-83
2023/08/08 15:45:17;;;;;;;1.80;1.13;;;23.10;46.20;;;;;;4686129;29;20401;-83
2023/08/08 16:11:05;;;;;;;1.40;1.30;;;24.10;43.80;;;;;;4736908;29;20857;-83
2023/08/08 16:41:29;;;;;;;1.63;1.20;;;20.60;46.00;;;;;;4746394;29;20759;-86
2023/08/08 17:01:58;;;;;;;3.90;1.70;;;20.60;46.50;;;;;;4744786;29;20207;-87
2023/08/08 17:22:05;;;;;;;2.40;1.27;;;19.80;48.40;;;;;;4682659;30;20231;-84
2023/08/08 17:47:31;;;;;;;2.83;1.40;;;19.20;47.60;;;;;;4667975;30;20323;-84
2023/08/08 18:12:15;;;;;;;2.83;2.17;;;17.80;49.30;;;;;;4539559;30;20523;-82
2023/08/08 19:48:51;;;;;;;4.33;2.70;;;16.30;81.80;;;;;;4538423;30;20592;-83
2023/08/08 20:44:29;;;;;;;3.13;2.83;;;16.30;82.50;;;;;;4573769;30;20686;-82
2023/08/08 21:15:29;;;;;;;4.53;3.27;;;16.00;82.90;;;;;;4663934;29;20203;-83
2023/08/08 21:35:47;;;;;;;3.07;2.60;;;15.90;83.70;;;;;;4739585;29;20352;-86
2023/08/08 22:00:54;;;;;;;3.47;3.10;;;15.60;86.40;;;;;;4600622;30;20443;-83
2023/08/08 22:31:08;;;;;;;5.27;3.37;;;15.20;90.30;;;;;;4645948;29;20286;-85
2023/08/08 22:51:37;;;;;;;3.67;2.70;;;15.30;90.40;;;;;;4728832;29;20208;-85
2023/08/08 23:12:02;;;;;;;4.10;3.37;;;14.90;96.00;;;;;;4701009;29;20222;-85
2023/08/08 23:37:02;;;;;;;6.00;3.40;;;14.60;99.70;;;;;;4603842;30;20507;-82
2023/08/08 23:52:36;;;;;;;4.43;3.33;;;14.70;98.10;;;;;;4580125;30;20287;-86
